Time;durP1;ratioP1;P1;durP2;ratioP2;P2;SDS_P1;SDS_P2;PMS_P1;PMS_P2;Temp;Humidity;BMP_temperature;BMP_pressure;BME280_temperature;BME280_humidity;BME280_pressure;Samples;Min_cycle;Max_cycle;Signal;HPM_P1;HPM_P2
2023/12/26 00:00:48;;;;;;;1.15;0.90;;;;;;;11.78;100.00;99337.84;4957108;28;20063;-69
2023/12/26 00:03:13;;;;;;;1.45;1.02;;;;;;;11.82;100.00;99327.78;4930470;29;20514;-69
2023/12/26 00:05:40;;;;;;;2.63;0.63;;;;;;;11.74;100.00;99323.59;4955000;28;20114;-69
2023/12/26 00:08:07;;;;;;;4.50;0.90;;;;;;;11.70;100.00;99310.16;4929062;29;20114;-69
2023/12/26 00:10:33;;;;;;;2.15;0.70;;;;;;;11.80;100.00;99311.25;4925265;29;20031;-69
2023/12/26 00:13:00;;;;;;;0.80;0.65;;;;;;;11.80;100.00;99308.53;4927722;29;20538;-70
2023/12/26 00:15:26;;;;;;;1.08;0.98;;;;;;;11.90;100.00;99296.91;4927686;29;20492;-69
2023/12/26 00:17:52;;;;;;;1.63;0.93;;;;;;;11.79;100.00;99285.41;4943184;28;20047;-69
2023/12/26 00:20:17;;;;;;;0.77;0.75;;;;;;;11.78;100.00;99284.66;4916241;29;20043;-69
2023/12/26 00:22:43;;;;;;;0.77;0.63;;;;;;;11.71;100.00;99290.09;4930793;29;20442;-69
2023/12/26 00:25:08;;;;;;;1.00;0.60;;;;;;;11.57;100.00;99284.78;4926914;29;20127;-69
2023/12/26 00:27:36;;;;;;;1.05;0.88;;;;;;;11.57;100.00;99284.00;4926245;29;20055;-68
2023/12/26 00:30:03;;;;;;;0.70;0.60;;;;;;;11.65;100.00;99272.03;4945406;29;20087;-69
2023/12/26 00:32:28;;;;;;;6.72;1.00;;;;;;;11.62;100.00;99270.88;4925311;29;20032;-69
2023/12/26 00:34:53;;;;;;;0.77;0.57;;;;;;;11.79;100.00;99282.72;4913300;29;20035;-69
2023/12/26 00:37:21;;;;;;;0.85;0.75;;;;;;;11.59;100.00;99281.69;4931311;29;20487;-69
2023/12/26 00:39:46;;;;;;;1.73;0.52;;;;;;;11.62;100.00;99273.56;4932071;29;20042;-69
2023/12/26 00:42:12;;;;;;;1.02;0.30;;;;;;;11.55;100.00;99272.84;4917339;29;20039;-69
2023/12/26 00:44:37;;;;;;;0.80;0.80;;;;;;;11.61;100.00;99285.50;4931199;29;20047;-69
2023/12/26 00:47:04;;;;;;;4.50;0.47;;;;;;;11.61;100.00;99272.03;4932883;29;20028;-69
2023/12/26 00:49:30;;;;;;;1.00;0.20;;;;;;;11.61;100.00;99273.97;4934322;29;20661;-69
2023/12/26 00:51:55;;;;;;;0.50;0.50;;;;;;;11.62;100.00;99281.66;4932853;29;20043;-69
2023/12/26 00:54:21;;;;;;;0.20;0.20;;;;;;;11.40;100.00;99279.50;4927335;29;20091;-69
2023/12/26 00:56:46;;;;;;;0.93;0.25;;;;;;;11.45;100.00;99279.84;4937349;29;20091;-69
2023/12/26 00:59:12;;;;;;;0.80;0.60;;;;;;;11.50;100.00;99276.72;4931275;29;20044;-69
2023/12/26 01:01:37;;;;;;;0.17;0.17;;;;;;;11.26;100.00;99279.56;4929079;29;20102;-69
2023/12/26 01:04:03;;;;;;;0.20;0.20;;;;;;;11.17;100.00;99279.97;4932297;29;20040;-69
2023/12/26 01:06:28;;;;;;;0.22;0.22;;;;;;;11.22;100.00;99278.81;4929744;29;20040;-69
2023/12/26 01:08:54;;;;;;;0.10;0.10;;;;;;;11.16;100.00;99270.38;4932655;29;20058;-69
2023/12/26 01:11:19;;;;;;;0.10;0.10;;;;;;;11.04;100.00;99253.88;4928669;29;20032;-69
2023/12/26 01:13:45;;;;;;;0.20;0.20;;;;;;;11.36;100.00;99235.63;4927056;29;20450;-69
2023/12/26 01:16:10;;;;;;;0.22;0.13;;;;;;;11.51;100.00;99243.22;4935929;29;20044;-69
2023/12/26 01:18:36;;;;;;;0.17;0.17;;;;;;;11.47;100.00;99236.31;4932599;29;20020;-69
2023/12/26 01:21:01;;;;;;;0.25;0.22;;;;;;;11.57;100.00;99241.66;4933857;29;20028;-69
2023/12/26 01:23:27;;;;;;;1.17;0.40;;;;;;;11.61;100.00;99242.34;4930892;29;20161;-69
2023/12/26 01:25:52;;;;;;;0.28;0.28;;;;;;;11.55;100.00;99248.59;4930680;29;20106;-69
2023/12/26 01:28:18;;;;;;;1.40;0.30;;;;;;;11.41;100.00;99244.06;4927613;29;20519;-69
2023/12/26 01:30:43;;;;;;;0.20;0.20;;;;;;;11.61;100.00;99247.00;4932078;29;20043;-69
2023/12/26 01:33:09;;;;;;;1.65;0.30;;;;;;;11.55;100.00;99253.97;4927291;29;20503;-69
2023/12/26 01:35:35;;;;;;;0.40;0.40;;;;;;;11.49;100.00;99247.47;4927485;29;20134;-69
2023/12/26 01:38:02;;;;;;;0.40;0.22;;;;;;;11.32;100.00;99240.25;4928960;29;20035;-68
2023/12/26 01:40:27;;;;;;;0.65;0.30;;;;;;;11.48;100.00;99240.53;4929397;29;20039;-69
2023/12/26 01:42:53;;;;;;;0.30;0.30;;;;;;;11.47;100.00;99244.41;4929086;29;20647;-69
2023/12/26 01:45:18;;;;;;;0.40;0.40;;;;;;;11.59;100.00;99235.84;4927936;29;20043;-69
2023/12/26 01:47:47;;;;;;;0.55;0.30;;;;;;;11.64;100.00;99236.19;4928671;29;20028;-69
2023/12/26 01:50:14;;;;;;;1.05;0.50;;;;;;;11.68;100.00;99242.34;4929650;29;20032;-69
2023/12/26 01:52:40;;;;;;;0.63;0.63;;;;;;;11.75;100.00;99230.72;4926385;29;20499;-69
2023/12/26 01:55:07;;;;;;;0.68;0.55;;;;;;;11.75;100.00;99223.41;4930073;29;20110;-68
2023/12/26 01:57:35;;;;;;;0.65;0.65;;;;;;;11.86;100.00;99226.03;4959978;28;20159;-69
2023/12/26 02:00:04;;;;;;;0.50;0.50;;;;;;;11.70;100.00;99221.16;4936105;29;20126;-69
2023/12/26 02:02:38;;;;;;;2.47;0.75;;;;;;;11.78;100.00;99205.69;4926341;29;20511;-69
2023/12/26 02:05:04;;;;;;;0.52;0.47;;;;;;;11.76;100.00;99216.88;4930283;29;20039;-69
2023/12/26 02:07:30;;;;;;;1.08;0.90;;;;;;;11.73;100.00;99212.25;4930158;29;20047;-69
2023/12/26 02:09:55;;;;;;;1.88;1.00;;;;;;;11.82;100.00;99202.94;4922514;29;20043;-69
2023/12/26 02:12:21;;;;;;;2.55;1.05;;;;;;;11.91;100.00;99204.03;4930176;29;20035;-69
2023/12/26 02:14:47;;;;;;;1.38;1.10;;;;;;;11.82;100.00;99206.41;4929958;29;20044;-69
2023/12/26 02:17:25;;;;;;;0.65;0.65;;;;;;;11.82;100.00;99201.03;4931372;29;20051;-69
2023/12/26 02:19:51;;;;;;;0.80;0.80;;;;;;;11.77;100.00;99196.03;4928465;29;20046;-69
2023/12/26 02:22:17;;;;;;;0.82;0.80;;;;;;;11.87;100.00;99200.59;4925993;29;20040;-69
2023/12/26 02:24:43;;;;;;;0.80;0.47;;;;;;;11.67;100.00;99199.63;4945714;29;20412;-69
2023/12/26 02:27:16;;;;;;;0.43;0.43;;;;;;;11.63;100.00;99201.53;4930569;29;20412;-69
2023/12/26 02:29:44;;;;;;;4.60;0.50;;;;;;;11.68;100.00;99190.34;4916204;29;20044;-69
2023/12/26 02:32:10;;;;;;;1.10;0.93;;;;;;;11.77;100.00;99187.94;4926432;29;20020;-69
2023/12/26 02:34:36;;;;;;;0.55;0.55;;;;;;;11.79;100.00;99183.69;4926731;29;20031;-69
2023/12/26 02:37:02;;;;;;;0.65;0.65;;;;;;;11.73;100.00;99184.50;4925735;29;20086;-69
2023/12/26 02:39:28;;;;;;;0.50;0.50;;;;;;;11.64;100.00;99182.25;4932841;29;20067;-69
2023/12/26 02:41:53;;;;;;;0.40;0.40;;;;;;;11.77;100.00;99183.31;4930505;29;20123;-69
2023/12/26 02:44:19;;;;;;;0.52;0.50;;;;;;;11.60;100.00;99186.13;4928036;29;20027;-69
2023/12/26 02:46:44;;;;;;;0.60;0.47;;;;;;;11.69;100.00;99184.56;4928119;29;20426;-69
2023/12/26 02:49:10;;;;;;;0.40;0.40;;;;;;;11.71;100.00;99187.63;4932584;29;20023;-69
2023/12/26 02:51:36;;;;;;;0.75;0.30;;;;;;;11.66;100.00;99177.28;4930291;29;20066;-69
2023/12/26 02:54:01;;;;;;;0.50;0.50;;;;;;;11.73;100.00;99179.13;4931016;29;20032;-68
2023/12/26 02:56:27;;;;;;;0.95;0.43;;;;;;;11.69;100.00;99187.25;4930417;29;20122;-69
2023/12/26 02:58:52;;;;;;;0.28;0.28;;;;;;;11.64;100.00;99168.78;4944030;29;20028;-69
2023/12/26 03:01:18;;;;;;;0.47;0.47;;;;;;;11.57;100.00;99182.31;4930476;29;20027;-69
2023/12/26 03:03:45;;;;;;;1.23;0.32;;;;;;;11.69;100.00;99191.91;4931972;29;20436;-69
2023/12/26 03:06:10;;;;;;;0.32;0.32;;;;;;;11.72;100.00;99180.28;4925424;29;20083;-69
2023/12/26 03:08:36;;;;;;;1.60;0.30;;;;;;;11.59;100.00;99187.31;4916079;29;20448;-68
2023/12/26 03:11:01;;;;;;;0.32;0.30;;;;;;;11.68;100.00;99184.94;4945449;29;20106;-68
2023/12/26 03:13:27;;;;;;;0.47;0.35;;;;;;;11.44;100.00;99189.34;4929312;29;20074;-69
2023/12/26 03:15:53;;;;;;;0.30;0.30;;;;;;;11.63;100.00;99201.53;4924223;29;20043;-69
2023/12/26 03:18:20;;;;;;;0.40;0.30;;;;;;;11.62;100.00;99194.59;4931764;29;20038;-69
2023/12/26 03:20:45;;;;;;;0.20;0.20;;;;;;;11.47;100.00;99193.19;4925516;29;20035;-68
2023/12/26 03:23:11;;;;;;;0.32;0.32;;;;;;;11.50;100.00;99184.28;4936332;29;20036;-69
2023/12/26 03:25:38;;;;;;;0.28;0.28;;;;;;;11.52;100.00;99193.53;4912884;29;20124;-68
2023/12/26 03:28:03;;;;;;;0.20;0.20;;;;;;;11.61;100.00;99180.34;4925848;29;20540;-69
2023/12/26 03:30:30;;;;;;;0.20;0.20;;;;;;;11.50;100.00;99193.16;4925005;29;20127;-69
2023/12/26 03:32:55;;;;;;;0.30;0.30;;;;;;;11.30;100.00;99186.00;4957195;28;20499;-69
2023/12/26 03:35:21;;;;;;;0.30;0.20;;;;;;;11.37;100.00;99177.84;4928913;29;20099;-68
2023/12/26 03:37:47;;;;;;;0.30;0.25;;;;;;;11.31;100.00;99177.50;4925708;29;20066;-69
2023/12/26 03:40:14;;;;;;;0.17;0.17;;;;;;;11.26;100.00;99177.94;4919673;29;20506;-68
2023/12/26 03:42:39;;;;;;;0.20;0.20;;;;;;;11.20;100.00;99182.19;4927919;28;20383;-68
2023/12/26 03:45:05;;;;;;;0.40;0.30;;;;;;;11.38;100.00;99190.91;4928441;29;20030;-68
2023/12/26 03:47:31;;;;;;;0.20;0.20;;;;;;;11.38;100.00;99206.34;4927150;29;20150;-68
2023/12/26 03:49:56;;;;;;;0.30;0.30;;;;;;;11.34;100.00;99200.22;4926016;29;20036;-68
2023/12/26 03:52:22;;;;;;;0.75;0.22;;;;;;;11.49;100.00;99207.81;4928245;29;20098;-68
2023/12/26 03:54:47;;;;;;;0.47;0.47;;;;;;;11.57;100.00;99203.13;4914062;29;20562;-68
2023/12/26 03:57:13;;;;;;;0.22;0.20;;;;;;;11.42;100.00;99212.47;4914214;29;20058;-68
2023/12/26 03:59:38;;;;;;;0.75;0.25;;;;;;;11.39;100.00;99211.34;4927668;29;20035;-69
2023/12/26 04:02:04;;;;;;;0.20;0.20;;;;;;;11.41;100.00;99219.00;4930107;29;20035;-69
2023/12/26 04:04:30;;;;;;;0.63;0.47;;;;;;;11.56;100.00;99223.16;4909516;29;20038;-69
2023/12/26 04:06:55;;;;;;;0.20;0.20;;;;;;;11.29;100.00;99231.03;4928690;29;20036;-68
2023/12/26 04:09:21;;;;;;;0.40;0.40;;;;;;;11.24;100.00;99234.16;4923839;29;20381;-69
2023/12/26 04:11:47;;;;;;;0.30;0.30;;;;;;;11.36;100.00;99236.38;4953004;28;20414;-69
2023/12/26 04:14:12;;;;;;;0.15;0.15;;;;;;;11.57;100.00;99251.66;4928575;29;20036;-69
2023/12/26 04:16:38;;;;;;;0.10;0.10;;;;;;;11.41;100.00;99244.06;4913266;29;20043;-68
2023/12/26 04:19:03;;;;;;;0.20;0.20;;;;;;;11.47;100.00;99247.88;4926597;28;20043;-68
2023/12/26 04:21:29;;;;;;;0.17;0.17;;;;;;;11.47;100.00;99244.41;4914786;29;20123;-68
2023/12/26 04:23:54;;;;;;;0.32;0.20;;;;;;;11.33;100.00;99247.16;4925077;29;20043;-68
2023/12/26 04:26:20;;;;;;;0.20;0.20;;;;;;;11.43;100.00;99246.34;4933245;29;20139;-68
2023/12/26 04:28:45;;;;;;;0.30;0.30;;;;;;;11.27;100.00;99243.34;4928262;29;20028;-68
2023/12/26 04:31:11;;;;;;;0.20;0.20;;;;;;;11.26;100.00;99237.22;4929985;29;20038;-68
2023/12/26 04:33:37;;;;;;;0.43;0.20;;;;;;;11.15;100.00;99255.34;4929096;29;20133;-68
2023/12/26 04:36:05;;;;;;;0.40;0.32;;;;;;;11.06;100.00;99246.16;4925624;29;20528;-68
2023/12/26 04:38:31;;;;;;;0.17;0.17;;;;;;;11.13;100.00;99254.97;4923874;29;20030;-68
2023/12/26 04:40:57;;;;;;;0.10;0.10;;;;;;;11.13;100.00;99260.34;4925312;29;20032;-68
2023/12/26 04:43:22;;;;;;;0.20;0.20;;;;;;;11.10;100.00;99273.84;4927624;29;20503;-68
2023/12/26 04:45:48;;;;;;;0.20;0.20;;;;;;;11.10;100.00;99271.16;4930655;29;20035;-68
2023/12/26 04:48:13;;;;;;;0.30;0.30;;;;;;;11.24;100.00;99269.19;4926723;29;20480;-68
2023/12/26 04:50:39;;;;;;;4.13;0.20;;;;;;;11.20;100.00;99264.97;4954975;28;20036;-68
2023/12/26 04:53:04;;;;;;;8.43;0.52;;;;;;;11.41;100.00;99271.00;4927587;29;20092;-68
2023/12/26 04:55:34;;;;;;;2.30;0.20;;;;;;;11.11;100.00;99275.41;4928933;29;20435;-68
2023/12/26 04:57:59;;;;;;;0.40;0.20;;;;;;;10.90;100.00;99284.31;4924579;29;20047;-68
2023/12/26 05:00:25;;;;;;;0.60;0.40;;;;;;;10.76;100.00;99300.53;4923748;29;20027;-68
2023/12/26 05:02:51;;;;;;;0.35;0.35;;;;;;;10.61;100.00;99294.41;4925558;29;20440;-68
2023/12/26 05:05:17;;;;;;;0.40;0.25;;;;;;;10.75;100.00;99304.38;4957863;28;20111;-68
2023/12/26 05:07:42;;;;;;;1.92;0.70;;;;;;;10.64;100.00;99317.09;4928289;29;20035;-68
2023/12/26 05:10:08;;;;;;;0.35;0.35;;;;;;;10.41;100.00;99339.06;4914589;29;20495;-68
2023/12/26 05:12:34;;;;;;;2.25;1.15;;;;;;;10.49;100.00;99351.31;4944752;28;20807;-68
2023/12/26 05:14:59;;;;;;;1.77;0.45;;;;;;;10.38;100.00;99326.34;4925767;29;20031;-68
2023/12/26 05:17:25;;;;;;;0.30;0.30;;;;;;;10.37;100.00;99343.66;4930231;29;20059;-69
2023/12/26 05:19:51;;;;;;;0.30;0.30;;;;;;;10.25;100.00;99314.44;4958707;28;20082;-68
2023/12/26 05:22:16;;;;;;;1.55;0.55;;;;;;;10.36;99.92;99336.72;4923912;29;20125;-68
2023/12/26 05:24:43;;;;;;;7.47;0.32;;;;;;;10.10;100.00;99331.75;4958833;28;20028;-68
2023/12/26 05:27:11;;;;;;;0.75;0.22;;;;;;;10.28;100.00;99334.44;4944934;29;20526;-68
2023/12/26 05:29:36;;;;;;;2.03;0.28;;;;;;;10.45;98.54;99334.41;4929463;29;20066;-68
2023/12/26 05:32:02;;;;;;;0.30;0.30;;;;;;;9.99;100.00;99347.84;4944639;29;20071;-68
2023/12/26 05:34:28;;;;;;;1.75;0.30;;;;;;;10.34;100.00;99349.81;4925826;29;20528;-68
2023/12/26 05:36:53;;;;;;;0.45;0.45;;;;;;;10.31;98.33;99361.34;4956379;28;20515;-70
2023/12/26 05:39:19;;;;;;;0.40;0.32;;;;;;;10.45;98.08;99357.88;4928783;29;20063;-68
2023/12/26 05:41:45;;;;;;;0.43;0.43;;;;;;;10.38;98.65;99358.66;4930684;29;20039;-69
2023/12/26 05:44:11;;;;;;;0.20;0.20;;;;;;;10.22;99.25;99358.25;4930106;29;20716;-70
2023/12/26 05:46:36;;;;;;;0.10;0.10;;;;;;;10.32;99.36;99365.56;4928197;29;20123;-68
2023/12/26 05:49:02;;;;;;;1.42;1.00;;;;;;;10.12;100.00;99377.88;4927902;29;20027;-69
2023/12/26 05:51:28;;;;;;;3.30;0.50;;;;;;;10.14;99.91;99370.19;4960680;28;20617;-71
2023/12/26 05:53:53;;;;;;;3.13;0.68;;;;;;;10.60;98.54;99397.88;4911359;29;21360;-68
2023/12/26 05:56:19;;;;;;;0.52;0.32;;;;;;;10.45;99.75;99390.19;4932119;29;20028;-69
2023/12/26 05:58:45;;;;;;;0.77;0.30;;;;;;;10.32;99.57;99397.84;4933944;29;20031;-69
2023/12/26 06:01:11;;;;;;;0.25;0.25;;;;;;;10.70;98.62;99391.69;4929262;29;20549;-68
2023/12/26 06:03:38;;;;;;;0.63;0.47;;;;;;;10.73;97.88;99393.63;4928999;29;20035;-68
2023/12/26 06:06:09;;;;;;;0.85;0.47;;;;;;;10.71;97.87;99406.69;4923576;29;20036;-68
2023/12/26 06:08:34;;;;;;;4.03;0.30;;;;;;;10.78;98.28;99412.06;4929570;29;20024;-68
2023/12/26 06:11:00;;;;;;;1.23;0.40;;;;;;;10.59;97.79;99403.63;4927952;29;20043;-69
2023/12/26 06:13:27;;;;;;;1.70;1.02;;;;;;;10.40;97.63;99412.84;4926791;29;20119;-68
2023/12/26 06:15:53;;;;;;;0.40;0.40;;;;;;;10.41;98.95;99411.72;4933495;29;20121;-68
2023/12/26 06:18:19;;;;;;;3.10;0.50;;;;;;;10.42;97.60;99409.78;4912128;29;20040;-68
2023/12/26 06:20:44;;;;;;;0.57;0.57;;;;;;;10.10;99.27;99408.97;4929084;29;20544;-68
2023/12/26 06:23:10;;;;;;;2.22;0.38;;;;;;;10.40;97.75;99433.59;4931670;29;20040;-68
2023/12/26 06:25:35;;;;;;;1.25;0.63;;;;;;;10.41;97.10;99435.94;4933200;29;20030;-68
2023/12/26 06:28:01;;;;;;;3.22;0.43;;;;;;;10.26;99.09;99441.69;4930463;29;20027;-68
2023/12/26 06:30:26;;;;;;;0.40;0.40;;;;;;;10.45;97.05;99454.78;4945203;29;20561;-68
2023/12/26 06:32:53;;;;;;;1.08;0.63;;;;;;;10.38;97.70;99466.28;4920387;29;20191;-68
2023/12/26 06:35:19;;;;;;;1.35;0.60;;;;;;;10.29;97.41;99463.19;4930156;29;20035;-68
2023/12/26 06:37:45;;;;;;;1.98;1.02;;;;;;;10.36;97.24;99460.50;4930238;29;20043;-68
2023/12/26 06:40:12;;;;;;;4.68;0.93;;;;;;;10.32;96.85;99457.03;4925631;29;20418;-68
2023/12/26 06:42:37;;;;;;;3.97;0.98;;;;;;;10.34;96.27;99473.56;4942706;29;20035;-68
2023/12/26 06:45:03;;;;;;;0.75;0.50;;;;;;;10.00;97.73;99465.03;4936408;29;20111;-68
2023/12/26 06:47:29;;;;;;;2.88;0.70;;;;;;;10.17;97.77;99462.78;4932229;29;20043;-68
2023/12/26 06:49:54;;;;;;;3.78;0.63;;;;;;;10.28;97.73;99469.72;4929825;29;20032;-68
2023/12/26 06:52:20;;;;;;;0.63;0.40;;;;;;;10.31;96.74;99473.56;4929423;29;20031;-68
2023/12/26 06:54:45;;;;;;;0.40;0.40;;;;;;;10.49;94.89;99479.78;4930861;29;20027;-68
2023/12/26 06:57:17;;;;;;;0.75;0.75;;;;;;;10.66;93.81;99487.09;4925564;29;20032;-69
2023/12/26 06:59:48;;;;;;;0.40;0.30;;;;;;;10.40;95.09;99492.81;4916101;29;20415;-69
2023/12/26 07:02:17;;;;;;;4.30;0.40;;;;;;;10.36;95.83;99502.78;4944929;28;20455;-69
2023/12/26 07:04:44;;;;;;;0.85;0.73;;;;;;;10.55;94.57;99505.91;4915447;29;20055;-69
2023/12/26 07:07:10;;;;;;;0.40;0.40;;;;;;;10.77;94.29;99504.00;4929136;29;20517;-69
2023/12/26 07:09:35;;;;;;;0.75;0.55;;;;;;;10.56;95.15;99515.53;4941844;29;20094;-69
2023/12/26 07:12:01;;;;;;;0.70;0.68;;;;;;;10.31;96.37;99509.34;4930087;29;20094;-69
2023/12/26 07:14:28;;;;;;;3.30;0.60;;;;;;;10.49;95.53;99518.19;4929742;29;20038;-69
2023/12/26 07:16:54;;;;;;;0.75;0.47;;;;;;;10.50;95.48;99529.75;4944763;29;20110;-69
2023/12/26 07:19:20;;;;;;;3.50;0.80;;;;;;;10.67;95.37;99529.00;4926963;29;20035;-69
2023/12/26 07:21:45;;;;;;;6.82;0.52;;;;;;;10.56;96.13;99528.22;4930069;29;20047;-68
2023/12/26 07:24:11;;;;;;;0.77;0.52;;;;;;;10.82;93.63;99530.53;4929220;29;20027;-69
2023/12/26 07:26:36;;;;;;;0.65;0.52;;;;;;;10.92;92.89;99529.78;4928479;29;20039;-69
2023/12/26 07:29:02;;;;;;;0.65;0.40;;;;;;;10.78;93.06;99533.25;4926399;29;20139;-69
2023/12/26 07:31:29;;;;;;;3.15;0.38;;;;;;;10.44;94.71;99548.19;4926016;29;20031;-69
2023/12/26 07:33:55;;;;;;;1.65;0.60;;;;;;;10.55;95.15;99559.00;4928475;29;20055;-69
2023/12/26 07:36:20;;;;;;;2.30;0.77;;;;;;;10.77;93.12;99557.88;4928468;29;20394;-69
2023/12/26 07:38:46;;;;;;;1.55;0.70;;;;;;;10.25;94.25;99567.34;4930003;29;20036;-69
2023/12/26 07:41:11;;;;;;;0.35;0.30;;;;;;;10.60;92.31;99550.53;4931546;29;20035;-68
2023/12/26 07:43:37;;;;;;;0.25;0.25;;;;;;;10.39;93.16;99562.03;4911921;29;20070;-68
2023/12/26 07:46:04;;;;;;;3.25;0.88;;;;;;;10.57;91.15;99570.13;4928648;29;20059;-68
2023/12/26 07:48:29;;;;;;;4.82;0.90;;;;;;;10.51;92.20;99582.44;4927996;29;20043;-69
2023/12/26 07:50:55;;;;;;;3.45;0.45;;;;;;;10.58;92.09;99579.75;4910443;29;20135;-69
2023/12/26 07:53:20;;;;;;;0.88;0.50;;;;;;;10.54;91.48;99585.13;4930639;29;20035;-69
2023/12/26 07:55:46;;;;;;;0.60;0.60;;;;;;;10.45;92.73;99590.09;4927276;29;20043;-69
2023/12/26 07:58:12;;;;;;;2.15;0.60;;;;;;;10.45;92.84;99600.09;4929098;29;20681;-69
2023/12/26 08:00:37;;;;;;;1.05;0.55;;;;;;;10.62;91.69;99604.78;4928209;29;20051;-69
2023/12/26 08:03:03;;;;;;;3.47;0.57;;;;;;;10.49;92.71;99603.59;4928559;29;20121;-69
2023/12/26 08:05:28;;;;;;;0.82;0.60;;;;;;;10.57;91.91;99616.66;4924432;29;20063;-69
2023/12/26 08:07:54;;;;;;;3.67;1.05;;;;;;;10.65;92.21;99620.94;4927587;29;20050;-69
2023/12/26 08:10:19;;;;;;;0.60;0.60;;;;;;;10.71;90.96;99621.31;4928969;29;20043;-69
2023/12/26 08:12:45;;;;;;;3.13;0.50;;;;;;;10.37;94.09;99628.91;4927460;29;20035;-69
2023/12/26 08:15:10;;;;;;;0.65;0.50;;;;;;;10.55;93.88;99629.72;4929488;29;20430;-69
2023/12/26 08:17:36;;;;;;;4.55;0.57;;;;;;;10.43;93.90;99635.44;4930460;29;20182;-69
2023/12/26 08:20:03;;;;;;;1.80;0.40;;;;;;;10.15;94.87;99635.31;4924709;29;20047;-68
2023/12/26 08:22:29;;;;;;;1.25;0.85;;;;;;;10.40;95.30;99636.22;4927946;29;20075;-69
2023/12/26 08:24:54;;;;;;;3.63;0.60;;;;;;;10.58;93.36;99639.75;4932121;29;20087;-69
2023/12/26 08:27:22;;;;;;;3.95;0.60;;;;;;;10.17;94.42;99643.00;4929202;29;20525;-69
2023/12/26 08:29:50;;;;;;;2.80;0.63;;;;;;;10.21;93.54;99643.81;4932496;29;20309;-69
2023/12/26 08:32:16;;;;;;;8.55;1.05;;;;;;;10.63;92.94;99655.53;4930129;29;20504;-69
2023/12/26 08:34:44;;;;;;;1.95;0.50;;;;;;;10.76;91.08;99662.09;4927350;29;20114;-68
2023/12/26 08:37:12;;;;;;;1.33;0.70;;;;;;;10.62;91.31;99672.84;4942668;29;20047;-69
2023/12/26 08:39:38;;;;;;;0.40;0.40;;;;;;;10.84;90.38;99679.84;4926316;29;20103;-68
2023/12/26 08:42:04;;;;;;;2.72;0.73;;;;;;;10.74;90.25;99675.19;4956891;28;20546;-69
2023/12/26 08:44:30;;;;;;;0.30;0.30;;;;;;;10.46;91.65;99682.38;4928735;29;20418;-69
2023/12/26 08:46:56;;;;;;;4.03;0.75;;;;;;;10.74;91.14;99691.34;4928146;29;20035;-68
2023/12/26 08:49:21;;;;;;;4.43;1.48;;;;;;;10.58;92.15;99701.69;4931142;29;20037;-69
2023/12/26 08:51:47;;;;;;;2.05;1.80;;;;;;;10.66;90.65;99689.78;4914257;29;20040;-69
2023/12/26 08:54:13;;;;;;;7.65;0.60;;;;;;;10.50;91.26;99702.00;4928073;29;20031;-68
2023/12/26 08:56:41;;;;;;;4.30;0.70;;;;;;;10.52;91.16;99703.19;4925372;29;20411;-68
2023/12/26 08:59:07;;;;;;;0.85;0.47;;;;;;;10.39;92.30;99710.03;4929528;29;20044;-68
2023/12/26 09:01:35;;;;;;;2.67;0.85;;;;;;;10.50;92.44;99702.00;4932101;29;20095;-68
2023/12/26 09:04:02;;;;;;;6.28;0.55;;;;;;;10.45;93.21;99721.22;4931295;29;20042;-69
2023/12/26 09:06:27;;;;;;;2.30;0.75;;;;;;;10.42;93.16;99721.97;4931478;29;20028;-69
2023/12/26 09:08:53;;;;;;;4.38;1.10;;;;;;;10.56;92.57;99730.91;4934773;29;20470;-69
2023/12/26 09:11:18;;;;;;;2.17;0.63;;;;;;;10.77;90.66;99712.13;4930994;29;20044;-69
2023/12/26 09:13:44;;;;;;;0.95;0.38;;;;;;;10.67;91.02;99722.84;4929403;29;20067;-69
2023/12/26 09:16:09;;;;;;;1.30;0.40;;;;;;;10.55;92.50;99737.41;4932755;29;20039;-69
2023/12/26 09:18:35;;;;;;;2.35;1.17;;;;;;;10.48;93.22;99736.59;4931916;29;20471;-69
2023/12/26 09:21:01;;;;;;;3.47;0.65;;;;;;;10.50;93.08;99748.53;4931832;29;20059;-69
2023/12/26 09:23:26;;;;;;;1.02;0.55;;;;;;;10.45;92.81;99742.75;4930632;29;20094;-69
2023/12/26 09:25:52;;;;;;;3.17;0.40;;;;;;;10.66;92.64;99748.25;4932013;29;20039;-69
2023/12/26 09:28:17;;;;;;;1.15;0.57;;;;;;;10.78;92.26;99759.44;4930516;29;20031;-69
2023/12/26 09:30:43;;;;;;;1.70;0.73;;;;;;;10.64;93.23;99751.31;4930779;29;20042;-69
2023/12/26 09:33:09;;;;;;;3.00;0.70;;;;;;;10.50;94.32;99753.94;4928651;29;20027;-69
2023/12/26 09:35:34;;;;;;;10.93;1.25;;;;;;;10.47;93.30;99760.06;4933275;29;20582;-69
2023/12/26 09:38:00;;;;;;;1.13;0.52;;;;;;;10.33;93.72;99762.66;4931146;28;20529;-68
2023/12/26 09:40:26;;;;;;;1.13;0.68;;;;;;;10.06;95.84;99755.13;4931157;29;20165;-69
2023/12/26 09:42:58;;;;;;;0.73;0.70;;;;;;;10.48;92.73;99775.06;4930895;29;20028;-69
2023/12/26 09:45:26;;;;;;;3.00;0.50;;;;;;;10.52;92.89;99773.16;4947053;29;20031;-69
2023/12/26 09:47:52;;;;;;;3.90;0.73;;;;;;;10.51;93.61;99779.69;4915973;29;20032;-69
2023/12/26 09:50:18;;;;;;;2.42;0.57;;;;;;;10.57;93.61;99788.19;4955877;28;20036;-69
2023/12/26 09:52:50;;;;;;;5.57;0.50;;;;;;;10.79;92.13;99795.25;4915017;29;20028;-69
2023/12/26 09:55:16;;;;;;;3.00;0.70;;;;;;;10.77;91.30;99792.94;4931483;29;20039;-69
2023/12/26 09:57:42;;;;;;;3.95;0.90;;;;;;;10.63;93.49;99787.47;4932732;29;20487;-69
2023/12/26 10:00:08;;;;;;;0.65;0.38;;;;;;;10.73;93.60;99791.34;4933864;29;20383;-69
2023/12/26 10:02:37;;;;;;;2.42;0.82;;;;;;;10.69;94.81;99794.03;4931121;29;20593;-69
2023/12/26 10:05:03;;;;;;;0.40;0.40;;;;;;;10.84;93.83;99809.13;4931170;29;20059;-68
2023/12/26 10:07:29;;;;;;;4.95;0.63;;;;;;;10.87;92.50;99799.53;4946886;29;20043;-69
2023/12/26 10:09:55;;;;;;;3.83;0.50;;;;;;;10.62;94.73;99801.31;4909279;29;20039;-69
2023/12/26 10:12:26;;;;;;;3.38;0.40;;;;;;;10.57;95.04;99807.03;4928254;29;20039;-69
2023/12/26 10:14:58;;;;;;;0.25;0.20;;;;;;;10.55;92.72;99802.03;4929100;29;20035;-68
2023/12/26 10:17:27;;;;;;;0.75;0.45;;;;;;;10.68;92.59;99803.25;4925977;29;20527;-69
2023/12/26 10:19:57;;;;;;;0.60;0.40;;;;;;;10.59;93.14;99810.13;4932259;29;20126;-69
2023/12/26 10:22:24;;;;;;;1.15;0.52;;;;;;;10.58;93.57;99812.06;4932333;29;20036;-68
2023/12/26 10:24:50;;;;;;;3.05;0.77;;;;;;;10.68;92.29;99824.78;4929521;29;20037;-69
2023/12/26 10:27:15;;;;;;;2.10;0.88;;;;;;;10.49;92.57;99811.59;4928656;29;20040;-69
2023/12/26 10:29:41;;;;;;;0.65;0.43;;;;;;;10.77;92.32;99825.25;4954058;28;20031;-69
2023/12/26 10:32:06;;;;;;;2.28;0.55;;;;;;;10.34;94.02;99828.78;4935095;29;20053;-69
2023/12/26 10:34:32;;;;;;;1.10;0.40;;;;;;;10.64;92.65;99832.09;4926059;29;20032;-69
2023/12/26 10:36:59;;;;;;;2.97;0.60;;;;;;;10.75;91.40;99830.22;4915135;29;20040;-69
2023/12/26 10:39:24;;;;;;;1.92;0.55;;;;;;;10.91;91.11;99832.63;4928522;29;20038;-69
2023/12/26 10:41:52;;;;;;;0.70;0.60;;;;;;;10.79;91.63;99849.88;4930780;29;20027;-69
2023/12/26 10:44:18;;;;;;;3.85;0.52;;;;;;;10.86;93.00;99841.06;4925768;29;20360;-69
2023/12/26 10:46:45;;;;;;;4.25;0.88;;;;;;;10.70;95.10;99827.13;4930042;29;20043;-69
2023/12/26 10:49:23;;;;;;;1.40;1.00;;;;;;;10.53;96.55;99825.09;4926330;29;20042;-69
2023/12/26 10:51:52;;;;;;;2.50;1.85;;;;;;;10.72;95.49;99820.19;4929138;29;20455;-69
2023/12/26 10:54:21;;;;;;;4.57;0.70;;;;;;;10.96;93.16;99839.56;4929709;29;20118;-69
2023/12/26 10:56:50;;;;;;;6.75;1.30;;;;;;;11.03;91.68;99845.00;4927504;29;20042;-69
2023/12/26 13:52:08;;;;;;;1.13;0.50;;;;;;;9.32;100.00;100064.22;4926592;29;20090;-69
2023/12/26 13:55:10;;;;;;;1.00;0.40;;;;;;;9.29;100.00;100080.28;4927325;29;20514;-69
2023/12/26 13:58:13;;;;;;;0.35;0.35;;;;;;;9.27;100.00;100080.59;4946223;28;20467;-69
2023/12/26 14:01:16;;;;;;;1.65;0.35;;;;;;;9.31;100.00;100099.50;4929816;29;20450;-69
2023/12/26 14:04:20;;;;;;;2.45;0.57;;;;;;;8.89;100.00;100113.75;4925351;29;20130;-69
2023/12/26 14:07:22;;;;;;;0.30;0.30;;;;;;;8.91;100.00;100103.44;4928455;29;20741;-69
2023/12/26 14:10:25;;;;;;;0.82;0.40;;;;;;;9.28;100.00;100127.84;4925257;29;20062;-70
2023/12/26 14:13:28;;;;;;;0.20;0.20;;;;;;;9.29;100.00;100131.31;4924016;29;20035;-70
2023/12/26 14:16:31;;;;;;;2.17;0.57;;;;;;;9.13;100.00;100136.03;4925812;29;20058;-70
2023/12/26 14:19:34;;;;;;;0.28;0.28;;;;;;;9.04;100.00;100134.34;4942418;28;20040;-69
2023/12/26 14:22:37;;;;;;;0.30;0.30;;;;;;;9.30;100.00;100148.97;4927297;29;20127;-69